Terminal Aerodrome Forecast
Issued by NWS Grand Forks, ND

Home | Current Version | Previous Version | Text Only | Print | Product List | Glossary On
Versions: 1 2 3 4 5 6 7 8 9 10 11 12 13 14 15 16 17 18 19 20
000
FTUS43 KFGF 281100
TAFFAR
TAF
KFAR 281133Z 2812/2912 15008KT P6SM BKN040 OVC080
     FM281500 16010G20KT P6SM VCSH SCT020 OVC030
      TEMPO 2817/2821 VRB25KT 3SM -TSRA OVC015CB
     FM290200 15008KT P6SM BKN040=

USA.gov is the U.S. government's official web portal to all federal, state and local government web resources and services.